Página principal
METAR-TAF:

METAR-TAF

Aeroportos :

Aeroporto Internacional de Chengdu Shuangliu

Chengdu, China

latitude: 30-40N, longitude: 104-01E, altura: 508 m

Observação actual do tempo

O boletim foi feito há 36 minutos, às 15:00 UTC
Vento 6 kt de nor-nordeste, variando entre nor-noroeste e nordeste
Temperatura 5°C
Humidade 93%
Pressão 1018 hPa
Visibilidade: 8000 m
Nuvens dispersasa uma altura de 1000 ft
Nuvens dispersasa uma altura de 2600 ft
chuva fraca

METAR: ZUUU 171500Z 02003MPS 340V050 8000 -RA SCT010 SCT026 05/04 Q1018 NOSIG

Hora: 23:36 (15:36 UTC)

Previsão

O boletim foi feito há 7 horas e 35 minutos, às 08:01 UTC
Previsão válida de 17 às 12 UTC a 18 às 12 UTC
Vento 6 kt de nor-nordeste
Visibilidade: 3500 m
Nuvens dispersasa uma altura de 3000 ft
chuva fraca, neblina

TAF: ZUUU 170801Z 1712/1812 02003MPS 3500 -RA BR SCT030 TX10/1807Z TN04/1723Z

Observações e previsões do tempo de mais de 4000 aeroportos (mensagens METAR e TAF).

As estações disponíveis são os pontos amarelos e vermelhos sobre o mapa.

Mova o rato sobre o mapa para ver o nome da estação.

Depois clique no ponto para visualizar as observações e previsões meteorológicas.

Para alterar o mapa : clique nos botões verdes com uma cruz preta para aumentar o zoom; no botão verde com uma pitada de zoom; ou nas setas verdes para mapas adjacentes.


METAR-TAF: